createdAt,value
2019-04-01T00:01:31.072Z,29.37
2019-04-01T00:04:01.586Z,28.80
2019-04-01T00:06:30.938Z,29.07
2019-04-01T00:09:01.730Z,30.17
2019-04-01T00:11:32.936Z,28.83
2019-04-01T00:14:02.346Z,29.60
2019-04-01T00:16:31.762Z,29.03
2019-04-01T00:19:03.355Z,29.67
2019-04-01T00:21:32.454Z,29.47
2019-04-01T00:24:05.190Z,30.37
2019-04-01T00:26:35.675Z,29.50
2019-04-01T00:29:05.338Z,30.63
2019-04-01T00:31:35.924Z,31.80
2019-04-01T00:34:05.495Z,30.63
2019-04-01T00:36:36.141Z,29.67
2019-04-01T00:39:07.904Z,32.00
2019-04-01T00:41:49.622Z,30.37
2019-04-01T00:44:19.238Z,30.60
2019-04-01T00:46:48.736Z,30.03
2019-04-01T00:49:19.977Z,30.23
2019-04-01T00:51:51.054Z,29.27
2019-04-01T00:54:21.785Z,29.97
2019-04-01T00:56:51.184Z,30.40
2019-04-01T00:59:20.687Z,31.63
2019-04-01T01:01:51.606Z,32.60
2019-04-01T01:04:21.165Z,32.50
2019-04-01T01:06:53.556Z,32.00
2019-04-01T01:09:25.719Z,31.87
2019-04-01T01:11:56.311Z,31.97
2019-04-01T01:14:27.216Z,31.27
2019-04-01T01:16:57.777Z,30.60
2019-04-01T01:19:27.205Z,30.53
2019-04-01T01:21:56.731Z,30.80
2019-04-01T01:24:28.076Z,32.27
2019-04-01T01:26:57.809Z,32.37
2019-04-01T01:29:28.392Z,32.27
2019-04-01T01:31:58.793Z,31.43
2019-04-01T01:34:30.721Z,30.70
2019-04-01T01:37:00.206Z,30.57
2019-04-01T01:39:29.700Z,31.87
2019-04-01T01:42:01.101Z,31.20
2019-04-01T01:44:30.681Z,30.73
2019-04-01T01:47:00.264Z,30.80
2019-04-01T01:49:29.704Z,30.53
2019-04-01T01:52:00.147Z,30.83
2019-04-01T01:54:31.061Z,31.17
2019-04-01T01:57:00.758Z,31.43
2019-04-01T01:59:30.338Z,31.63
2019-04-01T02:02:01.241Z,29.90
2019-04-01T02:04:30.726Z,29.43
2019-04-01T02:07:00.153Z,31.93
2019-04-01T02:09:31.331Z,31.33
2019-04-01T02:12:03.817Z,31.10
2019-04-01T02:14:34.828Z,31.27
2019-04-01T02:17:04.343Z,31.57
2019-04-01T02:19:35.769Z,31.97
2019-04-01T02:22:07.097Z,32.17
2019-04-01T02:24:36.563Z,32.17
2019-04-01T02:27:06.164Z,31.57
2019-04-01T02:29:35.468Z,31.17
2019-04-01T02:32:04.799Z,29.27
2019-04-01T02:34:34.119Z,27.50
2019-04-01T02:37:03.493Z,29.50
2019-04-01T02:39:32.989Z,28.73
2019-04-01T02:42:02.423Z,27.83
2019-04-01T02:44:31.709Z,29.07
2019-04-01T02:47:01.894Z,29.57
2019-04-01T02:49:31.212Z,28.77
2019-04-01T02:52:00.532Z,29.53
2019-04-01T02:54:29.818Z,30.27
2019-04-01T02:56:59.089Z,28.57
2019-04-01T02:59:28.389Z,26.83
2019-04-01T03:01:59.099Z,28.37
2019-04-01T03:04:28.375Z,28.17
2019-04-01T03:06:57.671Z,27.37
2019-04-01T03:09:26.978Z,25.70
2019-04-01T03:11:56.276Z,25.80
2019-04-01T03:14:25.582Z,25.57
2019-04-01T03:16:54.879Z,25.23
2019-04-01T03:19:24.189Z,24.40
2019-04-01T03:21:53.477Z,24.13
2019-04-01T03:24:22.733Z,23.50
2019-04-01T03:26:52.021Z,22.97
2019-04-01T03:29:21.302Z,22.40
2019-04-01T03:31:50.620Z,23.10
2019-04-01T03:34:19.902Z,23.23
2019-04-01T03:36:49.259Z,23.97
2019-04-01T03:39:20.684Z,22.27
2019-04-01T03:41:50.044Z,21.00
2019-04-01T03:44:19.345Z,22.43
2019-04-01T03:46:48.729Z,21.87
2019-04-01T03:49:19.169Z,20.90
2019-04-01T03:51:48.462Z,19.40
2019-04-01T03:54:17.768Z,22.53
2019-04-01T03:56:47.106Z,21.63
2019-04-01T03:59:16.437Z,20.77
2019-04-01T04:01:45.748Z,20.00
2019-04-01T04:04:15.082Z,21.67
2019-04-01T04:06:44.379Z,21.40
2019-04-01T04:09:13.691Z,22.13
2019-04-01T04:11:42.987Z,21.27
2019-04-01T04:14:12.734Z,21.97
2019-04-01T04:16:42.127Z,22.27
2019-04-01T04:19:11.466Z,21.87
2019-04-01T04:21:40.755Z,21.40
2019-04-01T04:24:10.060Z,22.40
2019-04-01T04:26:39.385Z,20.20
2019-04-01T04:29:08.655Z,21.97
2019-04-01T04:31:37.968Z,21.37
2019-04-01T04:34:07.270Z,19.90
2019-04-01T04:36:36.598Z,21.20
2019-04-01T04:39:07.361Z,20.00
2019-04-01T04:41:36.657Z,19.30
2019-04-01T04:44:05.947Z,18.07
2019-04-01T04:46:35.223Z,19.60
2019-04-01T04:49:04.526Z,19.13
2019-04-01T04:51:33.789Z,18.27
2019-04-01T04:54:03.113Z,19.20
2019-04-01T04:56:34.882Z,19.33
2019-04-01T04:59:07.845Z,19.27
2019-04-01T05:01:53.335Z,17.67
2019-04-01T05:04:23.101Z,18.60
2019-04-01T05:06:54.392Z,17.83
2019-04-01T05:09:24.806Z,17.33
2019-04-01T05:11:55.258Z,17.13
2019-04-01T05:14:25.165Z,16.23
2019-04-01T05:16:57.949Z,16.00
2019-04-01T05:19:29.352Z,16.13
2019-04-01T05:22:00.010Z,14.63
2019-04-01T05:24:31.275Z,15.03
2019-04-01T05:27:02.085Z,15.93
2019-04-01T05:29:32.529Z,14.50
2019-04-01T05:32:22.535Z,14.63
2019-04-01T05:34:55.943Z,13.73
2019-04-01T05:37:25.395Z,14.20
2019-04-01T05:39:55.131Z,14.47
2019-04-01T05:42:26.830Z,14.33
2019-04-01T05:44:57.720Z,14.47
2019-04-01T05:47:40.584Z,14.00
2019-04-01T05:50:10.260Z,13.33
2019-04-01T05:52:39.640Z,13.80
2019-04-01T05:55:09.303Z,13.10
2019-04-01T05:57:38.721Z,12.57
2019-04-01T06:00:09.709Z,12.63
2019-04-01T06:02:39.018Z,12.57
2019-04-01T06:05:08.690Z,12.70
2019-04-01T06:07:39.570Z,11.77
2019-04-01T06:10:08.968Z,11.70
2019-04-01T06:12:38.281Z,11.00
2019-04-01T06:15:08.020Z,11.23
2019-04-01T06:17:37.311Z,10.93
2019-04-01T06:20:06.871Z,11.43
2019-04-01T06:22:36.201Z,11.10
2019-04-01T06:25:06.667Z,11.13
2019-04-01T06:27:35.961Z,10.87
2019-04-01T06:30:06.252Z,10.83
2019-04-01T06:32:35.638Z,10.37
2019-04-01T06:35:05.375Z,10.83
2019-04-01T06:37:34.762Z,10.60
2019-04-01T06:40:04.651Z,10.17
2019-04-01T06:42:34.061Z,9.83
2019-04-01T06:45:03.381Z,10.90
2019-04-01T06:47:33.898Z,9.80
2019-04-01T06:50:03.304Z,9.17
2019-04-01T06:52:32.916Z,9.37
2019-04-01T06:55:03.539Z,9.33
2019-04-01T06:57:32.853Z,10.03
2019-04-01T07:00:02.136Z,9.40
2019-04-01T07:02:31.442Z,9.30
2019-04-01T07:05:00.826Z,9.83
2019-04-01T07:07:30.116Z,9.07
2019-04-01T07:09:59.406Z,9.07
2019-04-01T07:12:30.159Z,9.23
2019-04-01T07:14:59.491Z,7.97
2019-04-01T07:17:29.983Z,7.63
2019-04-01T07:19:59.327Z,7.57
2019-04-01T07:22:29.646Z,7.73
2019-04-01T07:24:58.978Z,7.97
2019-04-01T07:27:29.369Z,7.60
2019-04-01T07:29:58.867Z,8.13
2019-04-01T07:32:28.184Z,7.27
2019-04-01T07:34:57.523Z,7.20
2019-04-01T07:37:27.154Z,7.80
2019-04-01T07:39:56.462Z,6.77
2019-04-01T07:42:25.764Z,7.90
2019-04-01T07:44:55.717Z,7.23
2019-04-01T07:47:25.102Z,7.00
2019-04-01T07:49:54.506Z,7.67
2019-04-01T07:52:23.806Z,7.10
2019-04-01T07:54:53.144Z,6.80
2019-04-01T07:57:22.720Z,7.50
2019-04-01T07:59:52.030Z,7.23
2019-04-01T08:02:21.312Z,6.80
2019-04-01T08:04:51.032Z,7.10
2019-04-01T08:07:20.741Z,6.70
2019-04-01T08:09:50.012Z,6.87
2019-04-01T08:12:19.510Z,6.67
2019-04-01T08:14:48.816Z,7.03
2019-04-01T08:17:18.115Z,7.50
2019-04-01T08:19:47.455Z,7.53
2019-04-01T08:22:16.757Z,7.17
2019-04-01T08:24:46.038Z,7.27
2019-04-01T08:27:15.301Z,6.87
2019-04-01T08:29:46.075Z,7.50
2019-04-01T08:32:15.457Z,7.33
2019-04-01T08:34:44.852Z,7.27
2019-04-01T08:37:14.259Z,6.73
2019-04-01T08:39:43.556Z,8.13
2019-04-01T08:42:12.926Z,7.53
2019-04-01T08:44:42.394Z,8.27
2019-04-01T08:47:11.676Z,7.33
2019-04-01T08:49:40.975Z,7.30
2019-04-01T08:52:10.383Z,7.60
2019-04-01T08:54:39.652Z,7.30
2019-04-01T08:57:10.182Z,7.27
2019-04-01T08:59:39.451Z,7.67
2019-04-01T09:02:17.874Z,7.55
2019-04-01T09:04:39.974Z,6.97
2019-04-01T09:07:10.028Z,7.40
2019-04-01T09:09:40.043Z,8.28
2019-04-01T09:12:10.140Z,8.27
2019-04-01T09:14:39.534Z,8.30
2019-04-01T09:17:08.799Z,8.70
2019-04-01T09:19:38.094Z,8.40
2019-04-01T09:22:07.385Z,7.60
2019-04-01T09:24:36.798Z,8.40
2019-04-01T09:27:06.087Z,8.80
2019-04-01T09:29:35.490Z,7.83
2019-04-01T09:32:06.436Z,8.70
2019-04-01T09:34:37.194Z,8.08
2019-04-01T09:37:06.606Z,8.80
2019-04-01T09:39:35.969Z,8.50
2019-04-01T09:42:07.166Z,9.17
2019-04-01T09:44:37.390Z,8.70
2019-04-01T09:47:06.751Z,8.63
2019-04-01T09:49:36.102Z,8.33
2019-04-01T09:52:05.492Z,10.57
2019-04-01T09:54:34.826Z,7.93
2019-04-01T09:57:16.550Z,9.03
2019-04-01T09:59:35.199Z,9.38
2019-04-01T10:02:04.674Z,10.45
2019-04-01T10:04:35.150Z,9.40
2019-04-01T10:07:05.561Z,9.15
2019-04-01T10:09:34.867Z,10.13
2019-04-01T10:12:04.391Z,10.30
2019-04-01T10:14:33.822Z,9.50
2019-04-01T10:17:03.187Z,9.67
2019-04-01T10:19:32.537Z,10.53
2019-04-01T10:22:02.006Z,9.33
2019-04-01T10:24:32.781Z,10.23
2019-04-01T10:27:02.099Z,10.83
2019-04-01T10:29:38.725Z,11.70
2019-04-01T10:32:05.492Z,11.13
2019-04-01T10:34:34.812Z,9.97
2019-04-01T10:37:04.134Z,10.60
2019-04-01T10:39:33.686Z,9.77
2019-04-01T10:42:03.076Z,12.13
2019-04-01T10:44:32.390Z,10.93
2019-04-01T10:47:01.771Z,12.30
2019-04-01T10:49:32.256Z,10.47
2019-04-01T10:52:01.799Z,12.90
2019-04-01T10:54:32.645Z,11.30
2019-04-01T10:57:02.024Z,11.20
2019-04-01T10:59:32.417Z,11.80
2019-04-01T11:02:01.784Z,12.63
2019-04-01T11:04:31.190Z,12.47
2019-04-01T11:07:00.471Z,12.13
2019-04-01T11:09:38.192Z,12.07
2019-04-01T11:12:00.903Z,11.80
2019-04-01T11:14:30.213Z,12.27
2019-04-01T11:16:59.518Z,12.13
2019-04-01T11:19:29.941Z,13.67
2019-04-01T11:21:59.318Z,12.87
2019-04-01T11:24:28.684Z,12.43
2019-04-01T11:26:58.014Z,12.63
2019-04-01T11:29:27.411Z,12.80
2019-04-01T11:31:56.793Z,13.20
2019-04-01T11:34:26.092Z,12.97
2019-04-01T11:36:55.471Z,12.53
2019-04-01T11:39:25.012Z,12.20
2019-04-01T11:41:54.346Z,12.27
2019-04-01T11:44:23.683Z,11.10
2019-04-01T11:46:54.184Z,12.70
2019-04-01T11:49:23.678Z,11.87
2019-04-01T11:51:53.251Z,11.20
2019-04-01T11:54:22.580Z,13.10
2019-04-01T11:56:51.942Z,11.40
2019-04-01T11:59:21.351Z,12.50
2019-04-01T12:01:50.752Z,11.87
2019-04-01T12:04:20.108Z,10.47
2019-04-01T12:06:49.458Z,11.23
2019-04-01T12:09:18.741Z,11.47
2019-04-01T12:11:48.081Z,12.00
2019-04-01T12:14:17.360Z,11.33
2019-04-01T12:16:46.762Z,12.27
2019-04-01T12:19:18.269Z,12.57
2019-04-01T12:21:47.881Z,11.67
2019-04-01T12:24:17.163Z,11.83
2019-04-01T12:26:47.169Z,11.67
2019-04-01T12:29:16.776Z,12.43
2019-04-01T12:31:46.184Z,12.20
2019-04-01T12:34:15.788Z,12.33
2019-04-01T12:36:45.136Z,12.90
2019-04-01T12:39:14.514Z,13.10
2019-04-01T12:41:43.882Z,11.80
2019-04-01T12:44:13.194Z,12.47
2019-04-01T12:46:43.530Z,13.50
2019-04-01T12:49:12.787Z,13.27
2019-04-01T12:51:42.503Z,13.37
2019-04-01T12:54:12.922Z,13.03
2019-04-01T12:56:43.689Z,13.00
2019-04-01T12:59:13.009Z,13.13
2019-04-01T13:01:42.456Z,13.77
2019-04-01T13:04:11.858Z,14.63
2019-04-01T13:06:41.314Z,13.37
2019-04-01T13:09:10.624Z,13.00
2019-04-01T13:11:39.909Z,13.47
2019-04-01T13:14:09.228Z,12.97
2019-04-01T13:16:38.531Z,12.87
2019-04-01T13:19:07.848Z,13.97
2019-04-01T13:21:37.169Z,13.60
2019-04-01T13:24:06.476Z,12.70
2019-04-01T13:26:35.842Z,12.67
2019-04-01T13:29:05.157Z,13.73
2019-04-01T13:31:34.451Z,12.47
2019-04-01T13:34:03.746Z,13.33
2019-04-01T13:36:33.116Z,13.37
2019-04-01T13:39:04.131Z,13.23
2019-04-01T13:41:42.346Z,14.53
2019-04-01T13:44:08.904Z,14.27
2019-04-01T13:46:37.605Z,14.07
2019-04-01T13:49:06.898Z,13.47
2019-04-01T13:51:36.283Z,13.83
2019-04-01T13:54:08.938Z,13.93
2019-04-01T13:56:36.998Z,13.40
2019-04-01T13:59:09.554Z,14.40
2019-04-01T14:01:37.475Z,12.73
2019-04-01T14:04:06.816Z,13.20
2019-04-01T14:06:36.117Z,13.83
2019-04-01T14:09:07.231Z,13.83
2019-04-01T14:11:36.755Z,13.33
2019-04-01T14:14:06.277Z,14.17
2019-04-01T14:16:35.601Z,13.90
2019-04-01T14:19:04.875Z,13.93
2019-04-01T14:21:34.224Z,14.87
2019-04-01T14:24:03.501Z,14.53
2019-04-01T14:26:32.851Z,14.00
2019-04-01T14:29:02.136Z,12.93
2019-04-01T14:31:31.453Z,14.70
2019-04-01T14:34:01.278Z,14.87
2019-04-01T14:36:30.688Z,15.77
2019-04-01T14:39:00.019Z,14.67
2019-04-01T14:41:29.362Z,14.57
2019-04-01T14:43:58.804Z,14.87
2019-04-01T14:46:28.088Z,13.73
2019-04-01T14:49:00.278Z,14.50
2019-04-01T14:51:29.670Z,14.33
2019-04-01T14:53:58.982Z,14.80
2019-04-01T14:56:28.655Z,13.90
2019-04-01T14:58:58.993Z,15.50
2019-04-01T15:01:28.318Z,14.63
2019-04-01T15:03:57.967Z,15.63
2019-04-01T15:06:27.271Z,16.37
2019-04-01T15:08:56.558Z,13.77
2019-04-01T15:11:25.864Z,15.10
2019-04-01T15:13:55.152Z,15.00
2019-04-01T15:16:26.186Z,15.00
2019-04-01T15:18:55.573Z,16.07
2019-04-01T15:21:25.043Z,16.03
2019-04-01T15:23:54.374Z,14.80
2019-04-01T15:26:23.784Z,15.20
2019-04-01T15:28:53.184Z,14.93
2019-04-01T15:31:22.483Z,15.23
2019-04-01T15:33:51.794Z,14.97
2019-04-01T15:36:21.158Z,15.03
2019-04-01T15:38:51.082Z,14.50
2019-04-01T15:41:20.785Z,13.53
2019-04-01T15:43:50.437Z,14.07
2019-04-01T15:46:21.694Z,15.47
2019-04-01T15:48:51.117Z,15.33
2019-04-01T15:51:20.443Z,15.30
2019-04-01T15:53:49.818Z,14.37
2019-04-01T15:56:19.189Z,15.37
2019-04-01T15:58:50.782Z,14.37
2019-04-01T16:01:19.609Z,14.37
2019-04-01T16:03:48.915Z,14.90
2019-04-01T16:06:18.395Z,14.17
2019-04-01T16:08:47.714Z,14.90
2019-04-01T16:11:17.064Z,14.40
2019-04-01T16:13:46.415Z,14.43
2019-04-01T16:16:15.774Z,14.03
2019-04-01T16:18:45.081Z,14.80
2019-04-01T16:21:14.408Z,14.60
2019-04-01T16:23:43.746Z,14.20
2019-04-01T16:26:13.098Z,14.10
2019-04-01T16:28:44.243Z,13.90
2019-04-01T16:31:13.550Z,13.57
2019-04-01T16:33:43.982Z,13.30
2019-04-01T16:36:14.758Z,13.27
2019-04-01T16:38:59.827Z,14.00
2019-04-01T16:41:30.608Z,13.70
2019-04-01T16:43:59.968Z,14.70
2019-04-01T16:46:29.286Z,13.87
2019-04-01T16:48:58.593Z,13.47
2019-04-01T16:51:28.022Z,14.23
2019-04-01T16:53:57.326Z,13.00
2019-04-01T16:56:26.664Z,13.67
2019-04-01T16:58:56.178Z,13.03
2019-04-01T17:01:25.680Z,13.50
2019-04-01T17:03:55.055Z,14.23
2019-04-01T17:06:24.337Z,13.77
2019-04-01T17:08:55.090Z,13.90
2019-04-01T17:11:25.868Z,11.87
2019-04-01T17:13:55.669Z,13.73
2019-04-01T17:16:25.291Z,11.77
2019-04-01T17:18:57.713Z,12.53
2019-04-01T17:21:26.903Z,12.30
2019-04-01T17:23:56.216Z,12.97
2019-04-01T17:26:25.485Z,12.20
2019-04-01T17:28:54.805Z,11.90
2019-04-01T17:31:25.632Z,12.63
2019-04-01T17:33:55.947Z,12.37
2019-04-01T17:36:25.284Z,12.03
2019-04-01T17:38:54.590Z,11.07
2019-04-01T17:41:23.956Z,11.60
2019-04-01T17:43:53.227Z,11.53
2019-04-01T17:46:22.591Z,11.97
2019-04-01T17:48:51.910Z,10.80
2019-04-01T17:51:21.239Z,11.63
2019-04-01T17:53:50.969Z,11.73
2019-04-01T17:56:20.344Z,11.87
2019-04-01T17:58:51.106Z,12.37
2019-04-01T18:01:20.420Z,11.77
2019-04-01T18:03:50.743Z,10.90
2019-04-01T18:06:20.413Z,12.03
2019-04-01T18:08:49.768Z,11.50
2019-04-01T18:11:19.073Z,9.67
2019-04-01T18:13:48.370Z,9.97
2019-04-01T18:16:17.739Z,11.30
2019-04-01T18:18:47.430Z,10.03
2019-04-01T18:21:16.737Z,10.80
2019-04-01T18:23:46.034Z,11.87
2019-04-01T18:26:15.367Z,10.27
2019-04-01T18:28:44.647Z,11.57
2019-04-01T18:31:14.060Z,10.20
2019-04-01T18:33:55.728Z,11.47
2019-04-01T18:36:14.366Z,11.60
2019-04-01T18:38:43.775Z,11.17
2019-04-01T18:41:13.253Z,10.67
2019-04-01T18:43:42.610Z,11.60
2019-04-01T18:46:11.972Z,11.23
2019-04-01T18:48:41.311Z,11.20
2019-04-01T18:51:11.746Z,10.67
2019-04-01T18:53:41.154Z,11.20
2019-04-01T18:56:10.464Z,10.80
2019-04-01T18:58:39.796Z,10.60
2019-04-01T19:01:10.941Z,11.03
2019-04-01T19:03:42.892Z,10.60
2019-04-01T19:06:11.247Z,10.80
2019-04-01T19:08:40.547Z,10.93
2019-04-01T19:11:10.256Z,10.27
2019-04-01T19:13:39.863Z,10.97
2019-04-01T19:16:11.793Z,9.77
2019-04-01T19:18:41.959Z,10.70
2019-04-01T19:21:11.355Z,10.40
2019-04-01T19:23:40.679Z,10.47
2019-04-01T19:26:10.364Z,10.67
2019-04-01T19:28:39.777Z,10.93
2019-04-01T19:31:09.065Z,10.40
2019-04-01T19:33:38.597Z,10.37
2019-04-01T19:36:07.967Z,10.37
2019-04-01T19:38:37.815Z,10.37
2019-04-01T19:41:07.817Z,10.13
2019-04-01T19:43:40.396Z,10.60
2019-04-01T19:46:11.790Z,9.80
2019-04-01T19:48:43.187Z,10.87
2019-04-01T19:51:14.743Z,9.97
2019-04-01T19:53:46.260Z,9.70
2019-04-01T19:56:18.427Z,10.23
2019-04-01T19:58:50.225Z,10.37
2019-04-01T20:01:24.670Z,9.87
2019-04-01T20:03:55.404Z,9.27
2019-04-01T20:06:27.025Z,9.87
2019-04-01T20:08:56.941Z,10.17
2019-04-01T20:11:26.662Z,10.40
2019-04-01T20:13:56.473Z,10.07
2019-04-01T20:16:25.758Z,10.47
2019-04-01T20:18:55.483Z,9.33
2019-04-01T20:21:25.164Z,9.57
2019-04-01T20:23:54.959Z,9.97
2019-04-01T20:26:24.634Z,9.90
2019-04-01T20:28:54.889Z,10.47
2019-04-01T20:31:24.189Z,10.57
2019-04-01T20:33:53.610Z,9.57
2019-04-01T20:36:28.658Z,9.43
2019-04-01T20:39:01.088Z,10.37
2019-04-01T20:41:34.255Z,10.73
2019-04-01T20:44:07.995Z,10.17
2019-04-01T20:46:40.978Z,10.17
2019-04-01T20:49:13.796Z,10.27
2019-04-01T20:51:44.668Z,9.47
2019-04-01T20:54:14.017Z,9.37
2019-04-01T20:56:44.875Z,9.67
2019-04-01T20:59:14.650Z,9.50
2019-04-01T21:01:45.862Z,9.23
2019-04-01T21:04:17.134Z,9.23
2019-04-01T21:06:50.002Z,9.00
2019-04-01T21:09:21.539Z,7.40
2019-04-01T21:11:52.125Z,8.80
2019-04-01T21:14:22.939Z,9.30
2019-04-01T21:16:52.349Z,9.10
2019-04-01T21:19:23.627Z,8.37
2019-04-01T21:21:54.055Z,8.57
2019-04-01T21:24:23.462Z,7.97
2019-04-01T21:26:53.027Z,8.47
2019-04-01T21:29:24.024Z,8.13
2019-04-01T21:31:53.540Z,8.50
2019-04-01T21:34:23.169Z,7.80
2019-04-01T21:36:55.815Z,8.60
2019-04-01T21:39:27.064Z,8.97
2019-04-01T21:41:56.350Z,9.37
2019-04-01T21:44:27.182Z,7.60
2019-04-01T21:46:56.948Z,7.73
2019-04-01T21:49:26.579Z,8.23
2019-04-01T21:51:56.880Z,8.70
2019-04-01T21:54:27.213Z,8.17
2019-04-01T21:56:57.390Z,7.33
2019-04-01T21:59:26.680Z,8.37
2019-04-01T22:01:56.317Z,7.70
2019-04-01T22:04:25.622Z,7.23
2019-04-01T22:06:55.464Z,7.07
2019-04-01T22:09:24.751Z,6.90
2019-04-01T22:11:55.835Z,7.37
2019-04-01T22:14:25.660Z,7.47
2019-04-01T22:16:57.895Z,7.50
2019-04-01T22:19:29.015Z,7.40
2019-04-01T22:21:59.793Z,7.20
2019-04-01T22:24:29.102Z,6.40
2019-04-01T22:26:59.507Z,6.60
2019-04-01T22:29:28.877Z,7.37
2019-04-01T22:31:58.211Z,7.23
2019-04-01T22:34:27.828Z,7.70
2019-04-01T22:36:57.147Z,7.73
2019-04-01T22:39:27.664Z,7.13
2019-04-01T22:41:58.266Z,7.17
2019-04-01T22:44:28.154Z,6.30
2019-04-01T22:46:57.450Z,6.70
2019-04-01T22:49:42.140Z,7.30
2019-04-01T22:52:11.453Z,7.10
2019-04-01T22:54:40.749Z,7.07
2019-04-01T22:57:10.056Z,6.80
2019-04-01T22:59:39.339Z,7.03
2019-04-01T23:02:08.613Z,7.20
2019-04-01T23:04:39.308Z,6.40
2019-04-01T23:07:08.799Z,7.00
2019-04-01T23:09:38.085Z,6.53
2019-04-01T23:12:07.358Z,6.83
2019-04-01T23:14:36.689Z,7.20
2019-04-01T23:17:05.979Z,6.67
2019-04-01T23:19:35.564Z,6.97
2019-04-01T23:22:05.942Z,6.03
2019-04-01T23:24:35.219Z,6.23
2019-04-01T23:27:04.644Z,6.37
2019-04-01T23:29:33.953Z,6.50
2019-04-01T23:32:03.251Z,6.33
2019-04-01T23:34:32.550Z,7.10
2019-04-01T23:37:01.851Z,6.23
2019-04-01T23:39:31.141Z,5.37
2019-04-01T23:42:00.533Z,6.30
2019-04-01T23:44:29.852Z,5.90
2019-04-01T23:46:59.158Z,6.40
2019-04-01T23:49:28.450Z,6.67
2019-04-01T23:51:57.745Z,6.17
2019-04-01T23:54:27.124Z,6.40
2019-04-01T23:56:56.609Z,6.67
2019-04-01T23:59:25.967Z,6.57
